Time;durP1;ratioP1;P1;durP2;ratioP2;P2;SDS_P1;SDS_P2;PMS_P1;PMS_P2;Temp;Humidity;BMP_temperature;BMP_pressure;BME280_temperature;BME280_humidity;BME280_pressure;Samples;Min_cycle;Max_cycle;Signal;HPM_P1;HPM_P2
2022/07/28 00:01:02;;;;;;;10.15;7.68;;;;;;;;;;5070257;28;20033;-84
2022/07/28 00:03:28;;;;;;;9.60;6.65;;;;;;;;;;5061731;28;20029;-84
2022/07/28 00:05:56;;;;;;;9.02;6.75;;;;;;;;;;5066475;28;20036;-84
2022/07/28 00:08:22;;;;;;;10.00;8.07;;;;;;;;;;5079810;28;20437;-84
2022/07/28 00:10:48;;;;;;;10.73;7.47;;;;;;;;;;5073519;28;20463;-83
2022/07/28 00:13:14;;;;;;;11.07;8.00;;;;;;;;;;5061118;28;20446;-83
2022/07/28 00:15:40;;;;;;;9.45;7.53;;;;;;;;;;5062992;28;20352;-84
2022/07/28 00:18:06;;;;;;;8.35;6.68;;;;;;;;;;5047463;28;20559;-84
2022/07/28 00:20:32;;;;;;;8.90;7.60;;;;;;;;;;5062713;28;20107;-83
2022/07/28 00:22:59;;;;;;;9.35;7.45;;;;;;;;;;5042534;28;20118;-83
2022/07/28 00:25:25;;;;;;;9.43;6.78;;;;;;;;;;5077022;28;20025;-83
2022/07/28 00:27:51;;;;;;;10.00;7.28;;;;;;;;;;5073046;28;20037;-84
2022/07/28 00:30:17;;;;;;;9.15;7.00;;;;;;;;;;5065136;28;20518;-84
2022/07/28 00:32:43;;;;;;;9.43;7.28;;;;;;;;;;5071666;28;20031;-83
2022/07/28 00:35:09;;;;;;;8.43;6.50;;;;;;;;;;5075391;28;20021;-84
2022/07/28 00:37:35;;;;;;;9.05;7.10;;;;;;;;;;5051260;28;20035;-84
2022/07/28 00:40:01;;;;;;;9.13;6.38;;;;;;;;;;5077266;28;20036;-82
2022/07/28 00:42:27;;;;;;;10.02;7.75;;;;;;;;;;5065239;28;20079;-84
2022/07/28 00:44:54;;;;;;;8.10;6.53;;;;;;;;;;5066188;28;20459;-84
2022/07/28 00:47:20;;;;;;;7.95;6.80;;;;;;;;;;5066106;28;20090;-84
2022/07/28 00:49:47;;;;;;;9.52;7.32;;;;;;;;;;5064491;28;20016;-84
2022/07/28 00:52:16;;;;;;;9.75;6.65;;;;;;;;;;5068524;28;20024;-84
2022/07/28 00:54:42;;;;;;;9.40;6.72;;;;;;;;;;5065555;28;20142;-84
2022/07/28 00:57:08;;;;;;;9.18;7.35;;;;;;;;;;5057053;28;20403;-84
2022/07/28 00:59:34;;;;;;;11.10;6.93;;;;;;;;;;5064317;28;20033;-85
2022/07/28 01:02:01;;;;;;;10.55;7.50;;;;;;;;;;5063584;28;20476;-82
2022/07/28 01:04:27;;;;;;;9.63;6.70;;;;;;;;;;5069837;28;20029;-84
2022/07/28 01:06:53;;;;;;;8.85;7.05;;;;;;;;;;5081470;28;20024;-84
2022/07/28 01:09:22;;;;;;;8.30;6.65;;;;;;;;;;5064413;28;20032;-84
2022/07/28 01:11:51;;;;;;;8.98;7.53;;;;;;;;;;5064358;28;20025;-84
2022/07/28 01:14:36;;;;;;;9.15;6.80;;;;;;;;;;5067713;28;20024;-84
2022/07/28 01:17:06;;;;;;;9.80;7.10;;;;;;;;;;5065049;28;20033;-84
2022/07/28 01:19:57;;;;;;;7.55;5.78;;;;;;;;;;5081064;28;20164;-84
2022/07/28 01:22:25;;;;;;;8.85;6.35;;;;;;;;;;5049724;28;20101;-84
2022/07/28 01:24:51;;;;;;;8.50;6.07;;;;;;;;;;5052533;28;20021;-84
2022/07/28 01:27:29;;;;;;;8.65;6.75;;;;;;;;;;5061211;28;20032;-84
2022/07/28 01:30:00;;;;;;;9.13;6.30;;;;;;;;;;5061987;28;20029;-84
2022/07/28 01:32:41;;;;;;;8.60;6.50;;;;;;;;;;5075516;28;20103;-83
2022/07/28 01:35:19;;;;;;;8.65;6.05;;;;;;;;;;5062384;28;20120;-84
2022/07/28 01:37:46;;;;;;;8.75;6.10;;;;;;;;;;5063171;28;20032;-84
2022/07/28 01:40:14;;;;;;;9.45;6.47;;;;;;;;;;5062457;28;20031;-83
2022/07/28 01:42:44;;;;;;;10.15;6.40;;;;;;;;;;5079671;28;20394;-84
2022/07/28 01:45:10;;;;;;;8.18;6.47;;;;;;;;;;5077131;28;20561;-84
2022/07/28 01:47:37;;;;;;;9.15;6.60;;;;;;;;;;5063336;28;20029;-84
2022/07/28 01:50:05;;;;;;;7.97;5.70;;;;;;;;;;5060503;28;20032;-84
2022/07/28 01:52:32;;;;;;;8.75;6.63;;;;;;;;;;5064011;28;20032;-84
2022/07/28 01:55:00;;;;;;;10.60;7.18;;;;;;;;;;5062726;28;20029;-84
2022/07/28 01:57:29;;;;;;;7.88;6.28;;;;;;;;;;5062231;28;20029;-84
2022/07/28 01:59:56;;;;;;;8.50;6.60;;;;;;;;;;5065448;28;20084;-84
2022/07/28 02:02:22;;;;;;;9.30;6.75;;;;;;;;;;5063164;28;20031;-84
2022/07/28 02:04:50;;;;;;;9.13;5.85;;;;;;;;;;5062666;28;20082;-83
2022/07/28 02:07:17;;;;;;;8.48;6.43;;;;;;;;;;5061821;28;20060;-84
2022/07/28 02:09:45;;;;;;;8.60;6.20;;;;;;;;;;5079748;28;20367;-84
2022/07/28 02:12:13;;;;;;;9.82;6.25;;;;;;;;;;5062972;28;20039;-84
2022/07/28 02:14:39;;;;;;;9.43;7.07;;;;;;;;;;5062019;28;20051;-84
2022/07/28 02:17:09;;;;;;;9.93;6.75;;;;;;;;;;5044689;28;20115;-84
2022/07/28 02:19:36;;;;;;;9.98;6.65;;;;;;;;;;5063375;28;20123;-84
2022/07/28 02:22:03;;;;;;;10.38;6.38;;;;;;;;;;5067934;28;20035;-84
2022/07/28 02:24:31;;;;;;;8.57;6.18;;;;;;;;;;5043534;28;20071;-84
2022/07/28 02:27:05;;;;;;;8.73;6.60;;;;;;;;;;5044811;28;20025;-84
2022/07/28 02:29:33;;;;;;;8.52;6.15;;;;;;;;;;5046318;28;20041;-85
2022/07/28 02:32:04;;;;;;;9.63;5.78;;;;;;;;;;5044351;28;20475;-83
2022/07/28 02:34:31;;;;;;;8.32;5.85;;;;;;;;;;5076642;28;20028;-83
2022/07/28 02:36:58;;;;;;;8.93;5.80;;;;;;;;;;5079299;28;20036;-84
2022/07/28 02:39:34;;;;;;;8.15;5.50;;;;;;;;;;5081856;28;20036;-85
2022/07/28 02:42:04;;;;;;;8.43;5.43;;;;;;;;;;5064039;28;20069;-84
2022/07/28 02:44:35;;;;;;;7.30;5.55;;;;;;;;;;5065498;28;20045;-84
2022/07/28 02:47:04;;;;;;;8.23;5.72;;;;;;;;;;5054246;28;20025;-83
2022/07/28 02:49:31;;;;;;;7.50;5.25;;;;;;;;;;5062766;28;20050;-82
2022/07/28 02:51:58;;;;;;;8.05;5.80;;;;;;;;;;5064065;28;20043;-83
2022/07/28 02:54:26;;;;;;;9.10;5.63;;;;;;;;;;5052232;28;20029;-83
2022/07/28 02:56:53;;;;;;;8.85;5.63;;;;;;;;;;5033247;28;20058;-82
2022/07/28 02:59:19;;;;;;;8.43;5.32;;;;;;;;;;5032629;28;20033;-83
2022/07/28 03:01:46;;;;;;;8.68;5.75;;;;;;;;;;5050032;28;20024;-82
2022/07/28 03:04:13;;;;;;;7.35;5.43;;;;;;;;;;5056035;28;20032;-82
2022/07/28 03:06:40;;;;;;;8.45;5.47;;;;;;;;;;5074188;28;20012;-84
2022/07/28 03:09:08;;;;;;;8.15;4.95;;;;;;;;;;5061643;28;20109;-83
2022/07/28 03:11:34;;;;;;;7.80;5.57;;;;;;;;;;5056816;28;20024;-84
2022/07/28 03:14:00;;;;;;;9.18;6.10;;;;;;;;;;5058835;28;20391;-83
2022/07/28 03:16:26;;;;;;;10.00;6.07;;;;;;;;;;5053826;28;20040;-83
2022/07/28 03:18:52;;;;;;;7.43;5.32;;;;;;;;;;5055300;28;20022;-83
2022/07/28 03:21:18;;;;;;;9.38;6.03;;;;;;;;;;5056644;28;20025;-82
2022/07/28 03:23:46;;;;;;;7.43;4.95;;;;;;;;;;5054016;28;20029;-83
2022/07/28 03:26:17;;;;;;;6.93;4.93;;;;;;;;;;5056909;28;20096;-83
2022/07/28 03:28:44;;;;;;;7.00;4.67;;;;;;;;;;5005003;28;1131281;-82
2022/07/28 03:31:11;;;;;;;7.65;4.93;;;;;;;;;;5073547;28;20061;-83
2022/07/28 03:33:38;;;;;;;7.35;4.65;;;;;;;;;;5058819;28;20040;-84
2022/07/28 03:36:12;;;;;;;7.05;4.82;;;;;;;;;;5059161;28;20033;-84
2022/07/28 03:38:43;;;;;;;7.70;5.53;;;;;;;;;;5069195;28;20027;-84
2022/07/28 03:41:09;;;;;;;7.68;5.22;;;;;;;;;;5075305;28;20089;-84
2022/07/28 03:43:36;;;;;;;7.50;5.35;;;;;;;;;;5062797;28;20557;-83
2022/07/28 03:46:02;;;;;;;7.03;5.22;;;;;;;;;;5042203;28;20043;-84
2022/07/28 03:48:31;;;;;;;8.73;5.40;;;;;;;;;;5059713;28;20107;-84
2022/07/28 03:50:58;;;;;;;8.00;5.15;;;;;;;;;;5059041;28;20079;-83
2022/07/28 03:53:28;;;;;;;7.80;5.60;;;;;;;;;;5059490;28;20052;-83
2022/07/28 03:55:54;;;;;;;7.00;4.90;;;;;;;;;;5058910;28;20041;-82
2022/07/28 03:58:21;;;;;;;7.55;5.20;;;;;;;;;;5051940;28;20071;-84
2022/07/28 04:00:48;;;;;;;8.05;5.30;;;;;;;;;;5080185;28;20047;-84
2022/07/28 04:03:14;;;;;;;8.43;5.63;;;;;;;;;;5070498;28;20078;-84
2022/07/28 04:05:40;;;;;;;7.80;5.60;;;;;;;;;;5041251;28;20029;-84
2022/07/28 04:08:06;;;;;;;8.50;5.28;;;;;;;;;;5061277;28;20037;-83
2022/07/28 04:10:32;;;;;;;8.73;5.43;;;;;;;;;;5069909;28;20033;-83
2022/07/28 04:12:59;;;;;;;9.70;6.00;;;;;;;;;;5063837;28;20100;-83
2022/07/28 04:15:26;;;;;;;7.90;5.45;;;;;;;;;;5081258;28;20028;-83
2022/07/28 04:17:52;;;;;;;7.32;5.00;;;;;;;;;;5075189;28;20538;-84
2022/07/28 04:20:19;;;;;;;9.15;5.40;;;;;;;;;;5059869;28;20036;-85
2022/07/28 04:22:46;;;;;;;8.00;5.28;;;;;;;;;;5061426;28;20059;-84
2022/07/28 04:25:12;;;;;;;6.30;4.53;;;;;;;;;;5049715;28;20029;-84
2022/07/28 04:27:39;;;;;;;9.77;5.28;;;;;;;;;;5064285;28;20114;-83
2022/07/28 04:30:05;;;;;;;7.55;4.82;;;;;;;;;;5042733;28;20021;-83
2022/07/28 04:32:31;;;;;;;8.13;4.75;;;;;;;;;;5062628;28;20640;-83
2022/07/28 04:34:57;;;;;;;8.07;4.85;;;;;;;;;;5054993;28;20460;-83
2022/07/28 04:37:23;;;;;;;8.45;5.25;;;;;;;;;;5072327;28;20108;-84
2022/07/28 04:39:49;;;;;;;10.02;5.05;;;;;;;;;;5058054;28;20061;-84
2022/07/28 04:42:17;;;;;;;6.80;4.63;;;;;;;;;;5044207;28;20029;-84
2022/07/28 04:44:44;;;;;;;7.70;5.22;;;;;;;;;;5061452;28;20021;-84
2022/07/28 04:47:12;;;;;;;8.48;4.95;;;;;;;;;;5060668;28;20060;-84
2022/07/28 04:49:38;;;;;;;8.68;5.05;;;;;;;;;;5060760;28;20254;-84
2022/07/28 04:52:05;;;;;;;8.10;5.07;;;;;;;;;;5043755;28;20037;-82
2022/07/28 04:54:31;;;;;;;6.82;5.25;;;;;;;;;;5057927;28;20642;-83
2022/07/28 04:56:57;;;;;;;7.38;4.55;;;;;;;;;;5040780;28;20024;-83
2022/07/28 04:59:24;;;;;;;8.10;5.53;;;;;;;;;;5057127;28;20040;-84
2022/07/28 05:01:50;;;;;;;8.88;4.85;;;;;;;;;;5056591;28;20029;-84
2022/07/28 05:04:16;;;;;;;7.40;4.85;;;;;;;;;;5039934;28;20599;-83
2022/07/28 05:06:42;;;;;;;7.55;4.93;;;;;;;;;;5058116;28;20107;-84
2022/07/28 05:09:08;;;;;;;6.78;4.90;;;;;;;;;;5066592;28;20061;-84
2022/07/28 05:11:34;;;;;;;7.40;4.70;;;;;;;;;;5063561;28;20036;-84
2022/07/28 05:14:00;;;;;;;7.60;4.63;;;;;;;;;;5063928;28;20048;-84
2022/07/28 05:16:26;;;;;;;9.43;5.10;;;;;;;;;;5047730;28;20384;-84
2022/07/28 05:18:52;;;;;;;8.18;4.65;;;;;;;;;;5080724;28;20506;-84
2022/07/28 05:21:18;;;;;;;6.68;4.43;;;;;;;;;;5062545;28;20499;-84
2022/07/28 05:23:44;;;;;;;7.60;4.32;;;;;;;;;;5049116;28;20056;-84
2022/07/28 05:26:10;;;;;;;6.50;4.45;;;;;;;;;;5062734;28;20021;-84
2022/07/28 05:28:36;;;;;;;8.15;4.50;;;;;;;;;;5071512;28;20076;-83
2022/07/28 05:31:02;;;;;;;7.93;4.75;;;;;;;;;;5056555;28;20025;-84
2022/07/28 05:33:28;;;;;;;7.75;4.57;;;;;;;;;;5069283;28;20036;-84
2022/07/28 05:35:58;;;;;;;6.82;4.82;;;;;;;;;;5061495;28;20017;-84
2022/07/28 05:38:24;;;;;;;6.93;4.40;;;;;;;;;;5061956;28;20044;-84
2022/07/28 05:40:51;;;;;;;6.80;4.68;;;;;;;;;;5062039;28;20021;-84
2022/07/28 05:43:17;;;;;;;6.40;4.57;;;;;;;;;;5065963;28;20106;-85
2022/07/28 05:45:43;;;;;;;7.00;4.20;;;;;;;;;;5060148;28;20034;-83
2022/07/28 05:48:09;;;;;;;9.50;4.47;;;;;;;;;;5068585;28;20033;-84
2022/07/28 05:50:35;;;;;;;7.93;4.57;;;;;;;;;;5060992;28;20083;-84
2022/07/28 05:53:01;;;;;;;9.05;4.05;;;;;;;;;;5057321;28;20032;-84
2022/07/28 05:55:27;;;;;;;8.32;4.25;;;;;;;;;;5060851;28;20031;-84
2022/07/28 05:57:53;;;;;;;7.80;4.55;;;;;;;;;;5046663;28;20036;-84
2022/07/28 06:00:20;;;;;;;7.45;3.92;;;;;;;;;;5037996;28;20036;-84
2022/07/28 06:02:50;;;;;;;6.95;4.43;;;;;;;;;;5066000;28;20059;-84
2022/07/28 06:05:22;;;;;;;6.80;4.35;;;;;;;;;;5080098;28;20025;-84
2022/07/28 06:07:49;;;;;;;9.88;4.80;;;;;;;;;;5066761;28;20043;-84
2022/07/28 06:10:17;;;;;;;5.95;3.80;;;;;;;;;;5040525;28;20029;-84
2022/07/28 06:12:45;;;;;;;5.80;3.40;;;;;;;;;;5060758;28;20291;-84
2022/07/28 06:15:15;;;;;;;8.18;4.38;;;;;;;;;;5060568;28;20032;-84
2022/07/28 06:17:41;;;;;;;8.27;4.22;;;;;;;;;;5040751;28;20029;-84
2022/07/28 06:20:07;;;;;;;6.63;4.00;;;;;;;;;;5058973;28;20502;-84
2022/07/28 06:22:54;;;;;;;6.70;3.58;;;;;;;;;;5062028;28;20044;-84
2022/07/28 06:25:24;;;;;;;7.78;3.83;;;;;;;;;;5037119;28;20032;-85
2022/07/28 06:27:51;;;;;;;7.47;3.85;;;;;;;;;;5058074;28;20045;-84
2022/07/28 06:30:18;;;;;;;7.40;4.15;;;;;;;;;;5051167;28;20411;-84
2022/07/28 06:32:44;;;;;;;8.10;4.65;;;;;;;;;;5062135;28;20028;-85
2022/07/28 06:35:13;;;;;;;5.50;3.97;;;;;;;;;;5057676;28;20031;-84
2022/07/28 06:37:39;;;;;;;6.53;4.35;;;;;;;;;;5037310;28;20086;-84
2022/07/28 06:40:06;;;;;;;6.25;4.20;;;;;;;;;;5052752;28;20033;-85
2022/07/28 06:42:33;;;;;;;7.18;4.85;;;;;;;;;;5062458;28;20020;-85
2022/07/28 06:44:59;;;;;;;8.63;4.45;;;;;;;;;;5077325;28;20025;-83
2022/07/28 06:47:25;;;;;;;7.00;4.25;;;;;;;;;;5054455;28;20036;-84
2022/07/28 06:49:51;;;;;;;8.98;4.93;;;;;;;;;;5071079;28;20036;-84
2022/07/28 06:52:19;;;;;;;8.18;4.60;;;;;;;;;;5060824;28;20020;-84
2022/07/28 06:54:45;;;;;;;5.72;4.18;;;;;;;;;;5038490;28;20025;-83
2022/07/28 06:57:12;;;;;;;6.78;4.30;;;;;;;;;;5039552;28;20032;-84
2022/07/28 06:59:38;;;;;;;8.02;4.70;;;;;;;;;;5057458;28;20028;-84
2022/07/28 07:02:05;;;;;;;7.22;4.63;;;;;;;;;;5058534;28;20490;-84
2022/07/28 07:04:31;;;;;;;6.38;4.35;;;;;;;;;;5056032;28;20041;-84
2022/07/28 07:06:57;;;;;;;8.27;4.72;;;;;;;;;;5057526;28;20029;-83
2022/07/28 07:09:23;;;;;;;6.60;4.32;;;;;;;;;;5056451;28;20052;-84
2022/07/28 07:11:49;;;;;;;8.23;4.30;;;;;;;;;;5055769;28;20025;-84
2022/07/28 07:14:15;;;;;;;11.80;4.88;;;;;;;;;;5058429;28;20774;-83
2022/07/28 07:16:41;;;;;;;7.38;4.70;;;;;;;;;;5054100;28;20028;-83
2022/07/28 07:19:07;;;;;;;8.73;4.30;;;;;;;;;;5056449;28;20021;-83
2022/07/28 07:21:33;;;;;;;10.18;4.75;;;;;;;;;;5053950;28;20031;-83
2022/07/28 07:23:59;;;;;;;8.13;4.57;;;;;;;;;;5059299;28;20063;-83
2022/07/28 07:26:25;;;;;;;8.40;4.60;;;;;;;;;;5039874;28;20025;-82
2022/07/28 07:28:51;;;;;;;5.90;4.00;;;;;;;;;;5055190;28;20123;-83
2022/07/28 07:31:17;;;;;;;6.47;4.60;;;;;;;;;;5056120;28;20869;-82
2022/07/28 07:33:43;;;;;;;7.97;4.43;;;;;;;;;;5069182;28;20406;-83
2022/07/28 07:36:09;;;;;;;7.75;4.57;;;;;;;;;;5055776;28;20040;-82
2022/07/28 07:38:36;;;;;;;8.70;3.92;;;;;;;;;;5049147;28;20368;-84
2022/07/28 07:41:02;;;;;;;7.32;4.00;;;;;;;;;;5046659;28;20202;-83
2022/07/28 07:43:28;;;;;;;5.75;3.78;;;;;;;;;;5063919;28;20104;-84
2022/07/28 07:45:54;;;;;;;6.75;4.20;;;;;;;;;;5053415;28;20033;-83
2022/07/28 07:48:20;;;;;;;7.40;4.20;;;;;;;;;;5042584;28;20120;-83
2022/07/28 07:50:46;;;;;;;6.68;4.20;;;;;;;;;;5035332;28;20032;-83
2022/07/28 07:53:14;;;;;;;7.15;4.47;;;;;;;;;;5061541;28;20044;-83
2022/07/28 07:55:40;;;;;;;7.57;4.10;;;;;;;;;;5046389;28;20017;-83
2022/07/28 07:58:06;;;;;;;7.00;4.25;;;;;;;;;;5050639;28;20037;-83
2022/07/28 08:00:32;;;;;;;6.20;4.03;;;;;;;;;;5048808;28;20032;-83
2022/07/28 08:02:59;;;;;;;6.50;4.43;;;;;;;;;;5058489;28;20057;-83
2022/07/28 08:05:26;;;;;;;7.22;4.10;;;;;;;;;;5059380;28;20021;-83
2022/07/28 08:07:52;;;;;;;7.47;5.03;;;;;;;;;;5050687;28;20029;-83
2022/07/28 08:10:18;;;;;;;7.03;4.63;;;;;;;;;;5053367;28;20029;-84
2022/07/28 08:12:44;;;;;;;7.82;4.03;;;;;;;;;;5057364;28;20028;-83
2022/07/28 08:15:10;;;;;;;8.60;4.72;;;;;;;;;;5056708;28;20027;-82
2022/07/28 08:17:36;;;;;;;7.20;4.68;;;;;;;;;;5032869;28;20516;-83
2022/07/28 08:20:03;;;;;;;7.40;4.10;;;;;;;;;;5052014;28;20436;-83
2022/07/28 08:22:29;;;;;;;7.38;4.57;;;;;;;;;;5050744;28;20064;-83
2022/07/28 08:24:55;;;;;;;7.57;4.57;;;;;;;;;;5051101;28;20029;-83
2022/07/28 08:27:21;;;;;;;7.18;4.50;;;;;;;;;;5052935;28;20032;-82
2022/07/28 08:29:47;;;;;;;7.50;4.82;;;;;;;;;;5074962;28;20044;-83
2022/07/28 08:32:14;;;;;;;8.55;4.85;;;;;;;;;;5039165;28;20090;-83
2022/07/28 08:34:40;;;;;;;7.10;4.80;;;;;;;;;;5060069;28;20029;-84
2022/07/28 08:37:06;;;;;;;7.60;4.32;;;;;;;;;;5068877;28;20032;-83
2022/07/28 08:39:33;;;;;;;7.18;4.07;;;;;;;;;;5057086;28;20124;-83
2022/07/28 08:42:04;;;;;;;7.22;4.82;;;;;;;;;;5055757;28;20033;-83
2022/07/28 08:44:33;;;;;;;6.87;4.60;;;;;;;;;;5051656;28;20129;-83
2022/07/28 08:46:59;;;;;;;6.32;4.30;;;;;;;;;;5055819;28;20056;-84
2022/07/28 08:49:26;;;;;;;6.07;4.45;;;;;;;;;;5039467;28;20027;-83
2022/07/28 08:51:52;;;;;;;7.97;4.97;;;;;;;;;;5056568;28;20021;-84
2022/07/28 08:54:26;;;;;;;7.47;4.68;;;;;;;;;;5055552;28;20021;-83
2022/07/28 08:56:52;;;;;;;6.88;5.00;;;;;;;;;;5042353;28;20395;-84
2022/07/28 08:59:18;;;;;;;8.48;5.18;;;;;;;;;;5058713;28;20024;-84
2022/07/28 09:01:44;;;;;;;7.82;5.60;;;;;;;;;;5056668;28;20035;-83
2022/07/28 09:04:11;;;;;;;6.88;4.47;;;;;;;;;;5044869;28;20159;-84
2022/07/28 09:06:40;;;;;;;8.52;4.97;;;;;;;;;;5055796;28;20104;-83
2022/07/28 09:09:08;;;;;;;8.25;4.70;;;;;;;;;;5056878;28;20068;-84
2022/07/28 09:11:35;;;;;;;7.60;4.90;;;;;;;;;;5037606;28;20059;-83
2022/07/28 09:14:01;;;;;;;6.88;5.22;;;;;;;;;;5055295;28;20037;-84
2022/07/28 09:16:27;;;;;;;7.72;4.95;;;;;;;;;;5055834;28;20098;-84
2022/07/28 09:18:53;;;;;;;9.43;5.10;;;;;;;;;;5036383;28;20052;-83
2022/07/28 09:21:19;;;;;;;7.75;5.13;;;;;;;;;;5056574;28;20025;-84
2022/07/28 09:23:47;;;;;;;6.93;4.32;;;;;;;;;;5066313;28;20299;-83
2022/07/28 09:26:13;;;;;;;6.85;4.72;;;;;;;;;;5061000;28;20614;-85
2022/07/28 09:28:49;;;;;;;9.93;5.57;;;;;;;;;;5056816;28;20148;-84
2022/07/28 09:31:16;;;;;;;8.00;5.25;;;;;;;;;;5056670;28;20037;-82
2022/07/28 09:33:52;;;;;;;8.35;5.82;;;;;;;;;;5063858;28;20029;-83
2022/07/28 09:36:18;;;;;;;8.13;6.20;;;;;;;;;;5052785;28;20039;-82
2022/07/28 09:38:44;;;;;;;8.82;5.57;;;;;;;;;;5053757;28;20487;-83
2022/07/28 09:41:10;;;;;;;8.82;5.40;;;;;;;;;;5029784;28;20607;-83
2022/07/28 09:43:38;;;;;;;7.13;5.43;;;;;;;;;;5065733;28;20045;-83
2022/07/28 09:46:04;;;;;;;10.07;5.63;;;;;;;;;;5068035;28;20028;-83
2022/07/28 09:48:31;;;;;;;9.30;5.25;;;;;;;;;;5057898;28;20025;-83
2022/07/28 09:51:10;;;;;;;7.30;5.63;;;;;;;;;;5055326;28;20024;-83
2022/07/28 09:53:36;;;;;;;7.40;5.25;;;;;;;;;;5053799;28;20050;-83
2022/07/28 09:56:02;;;;;;;7.93;5.78;;;;;;;;;;5056964;28;20025;-83
2022/07/28 09:58:29;;;;;;;9.43;5.40;;;;;;;;;;5062723;28;20059;-83
2022/07/28 10:01:21;;;;;;;6.95;5.35;;;;;;;;;;5056716;28;20096;-81
2022/07/28 10:03:55;;;;;;;7.00;5.20;;;;;;;;;;5051912;28;20040;-83
2022/07/28 10:06:27;;;;;;;6.50;5.30;;;;;;;;;;5038181;28;20430;-84
2022/07/28 10:08:53;;;;;;;7.68;5.55;;;;;;;;;;5071561;28;20029;-84
2022/07/28 10:11:23;;;;;;;9.32;6.55;;;;;;;;;;5056100;28;20027;-82
2022/07/28 10:13:53;;;;;;;7.07;5.30;;;;;;;;;;5057234;28;20371;-84
2022/07/28 10:16:20;;;;;;;6.85;5.22;;;;;;;;;;5057713;28;20056;-83
2022/07/28 10:18:46;;;;;;;7.38;5.47;;;;;;;;;;5063939;28;20025;-82
2022/07/28 10:21:14;;;;;;;7.03;4.88;;;;;;;;;;5057775;28;20069;-84
2022/07/28 10:23:44;;;;;;;9.20;5.22;;;;;;;;;;5054902;28;20025;-84
2022/07/28 10:26:10;;;;;;;8.05;5.20;;;;;;;;;;5057826;28;20114;-84
2022/07/28 10:28:37;;;;;;;8.38;5.43;;;;;;;;;;5057856;28;20037;-83
2022/07/28 10:31:04;;;;;;;6.53;5.32;;;;;;;;;;5038089;28;20029;-83
2022/07/28 10:33:31;;;;;;;6.95;5.47;;;;;;;;;;5061315;28;20027;-83
2022/07/28 10:35:58;;;;;;;7.55;4.88;;;;;;;;;;5055713;28;20025;-82
2022/07/28 10:38:28;;;;;;;6.07;4.72;;;;;;;;;;5055759;28;20102;-83
2022/07/28 10:40:55;;;;;;;6.65;5.53;;;;;;;;;;5063730;28;20029;-84
2022/07/28 10:43:22;;;;;;;7.53;5.38;;;;;;;;;;5056855;28;20037;-83
2022/07/28 10:45:48;;;;;;;6.95;5.22;;;;;;;;;;5057381;28;20037;-84
2022/07/28 10:48:14;;;;;;;6.32;4.70;;;;;;;;;;5057050;28;20029;-82
2022/07/28 10:50:42;;;;;;;7.65;5.68;;;;;;;;;;5055179;28;20017;-84
2022/07/28 10:53:11;;;;;;;6.78;5.35;;;;;;;;;;5057275;28;20025;-85
2022/07/28 10:55:50;;;;;;;8.60;6.00;;;;;;;;;;5062332;28;20028;-82
2022/07/28 10:58:19;;;;;;;6.75;5.60;;;;;;;;;;5065032;28;20079;-84
2022/07/28 11:00:50;;;;;;;7.10;5.20;;;;;;;;;;5057007;28;20025;-83
2022/07/28 11:03:36;;;;;;;7.57;4.80;;;;;;;;;;5047721;28;20029;-82
2022/07/28 11:06:20;;;;;;;7.25;5.57;;;;;;;;;;5049608;28;20036;-82
2022/07/28 11:08:46;;;;;;;7.82;5.13;;;;;;;;;;5050510;28;20029;-82
2022/07/28 11:11:12;;;;;;;6.30;4.95;;;;;;;;;;5047049;28;20017;-83
2022/07/28 11:13:38;;;;;;;7.63;5.35;;;;;;;;;;5049624;28;20219;-83
2022/07/28 11:16:14;;;;;;;7.03;5.40;;;;;;;;;;5049718;28;20056;-82
2022/07/28 11:18:59;;;;;;;6.82;5.20;;;;;;;;;;5050167;28;20025;-84
2022/07/28 11:21:25;;;;;;;7.43;5.10;;;;;;;;;;5049679;28;20025;-83
2022/07/28 11:23:55;;;;;;;7.03;5.75;;;;;;;;;;5051617;28;20041;-84
2022/07/28 11:26:24;;;;;;;7.50;4.88;;;;;;;;;;5059202;28;20025;-81
2022/07/28 11:29:02;;;;;;;7.05;4.03;;;;;;;;;;5055995;28;20048;-83
2022/07/28 11:31:46;;;;;;;5.72;3.53;;;;;;;;;;5060420;28;20522;-82
2022/07/28 11:34:19;;;;;;;5.72;3.92;;;;;;;;;;5067941;28;20086;-81
2022/07/28 11:36:58;;;;;;;6.05;3.88;;;;;;;;;;5048278;28;20045;-82
2022/07/28 11:39:42;;;;;;;5.60;4.25;;;;;;;;;;5046938;28;20021;-81
2022/07/28 11:42:25;;;;;;;6.47;3.95;;;;;;;;;;5030455;28;20033;-82
2022/07/28 11:44:51;;;;;;;5.50;3.95;;;;;;;;;;5054625;28;20029;-82
2022/07/28 11:47:18;;;;;;;5.35;3.75;;;;;;;;;;5059055;28;20478;-82
2022/07/28 11:49:44;;;;;;;6.28;4.35;;;;;;;;;;5058900;28;20025;-83
2022/07/28 11:52:15;;;;;;;6.35;4.10;;;;;;;;;;5059400;28;20434;-83
2022/07/28 11:54:42;;;;;;;5.43;3.83;;;;;;;;;;5049264;28;20026;-83
2022/07/28 11:57:09;;;;;;;7.68;3.60;;;;;;;;;;5059123;28;20028;-81
2022/07/28 11:59:42;;;;;;;5.82;4.05;;;;;;;;;;5061612;28;20521;-83
2022/07/28 12:02:08;;;;;;;6.43;4.20;;;;;;;;;;5059742;28;20037;-80
2022/07/28 12:04:34;;;;;;;5.93;4.25;;;;;;;;;;5065670;28;20028;-82
2022/07/28 12:07:01;;;;;;;6.60;4.60;;;;;;;;;;5058214;28;20036;-82
2022/07/28 12:09:31;;;;;;;6.35;4.45;;;;;;;;;;5056503;28;20025;-83
2022/07/28 12:11:57;;;;;;;6.10;4.05;;;;;;;;;;5060366;28;20028;-85
2022/07/28 12:14:27;;;;;;;6.03;4.55;;;;;;;;;;5056153;28;20517;-82
2022/07/28 12:16:55;;;;;;;6.28;4.38;;;;;;;;;;5071127;28;20066;-82
2022/07/28 12:19:23;;;;;;;6.75;4.10;;;;;;;;;;5058359;28;20021;-82
2022/07/28 12:21:53;;;;;;;7.13;4.32;;;;;;;;;;5053656;28;20028;-82
2022/07/28 12:24:29;;;;;;;6.22;4.25;;;;;;;;;;5061221;28;20021;-81
2022/07/28 12:26:59;;;;;;;6.03;4.05;;;;;;;;;;5072087;28;20161;-81
2022/07/28 12:29:32;;;;;;;5.43;4.05;;;;;;;;;;5071111;28;20044;-84
2022/07/28 12:31:58;;;;;;;6.30;4.38;;;;;;;;;;5061291;28;20032;-84
2022/07/28 12:34:25;;;;;;;6.70;4.10;;;;;;;;;;5058801;28;20021;-83
2022/07/28 12:36:51;;;;;;;8.40;5.30;;;;;;;;;;5029886;28;20077;-84
2022/07/28 12:39:21;;;;;;;5.35;3.97;;;;;;;;;;5038854;28;20029;-83
2022/07/28 12:41:47;;;;;;;6.30;4.15;;;;;;;;;;5054738;28;20033;-84
2022/07/28 12:44:13;;;;;;;5.95;4.45;;;;;;;;;;5035856;28;20024;-83
2022/07/28 12:46:47;;;;;;;5.40;3.95;;;;;;;;;;5053306;28;20532;-84
2022/07/28 12:49:20;;;;;;;5.80;4.13;;;;;;;;;;5053348;28;20017;-83
2022/07/28 12:51:46;;;;;;;7.35;4.45;;;;;;;;;;5053132;28;20044;-83
2022/07/28 12:54:13;;;;;;;5.82;3.80;;;;;;;;;;5053375;28;20036;-83
2022/07/28 12:56:46;;;;;;;4.90;3.88;;;;;;;;;;5055403;28;20363;-84
2022/07/28 12:59:13;;;;;;;5.38;3.67;;;;;;;;;;5059696;28;20112;-84
2022/07/28 13:01:46;;;;;;;6.00;4.13;;;;;;;;;;5055733;28;20029;-83
2022/07/28 13:04:12;;;;;;;5.80;3.80;;;;;;;;;;5040455;28;20479;-82
2022/07/28 13:06:39;;;;;;;5.25;4.10;;;;;;;;;;5039969;28;20032;-84
2022/07/28 13:09:06;;;;;;;5.72;3.78;;;;;;;;;;5060640;28;20028;-82
2022/07/28 13:11:32;;;;;;;8.05;4.10;;;;;;;;;;5058496;28;20028;-82
2022/07/28 13:13:58;;;;;;;6.05;4.07;;;;;;;;;;5058725;28;20028;-81
2022/07/28 13:16:25;;;;;;;5.72;4.07;;;;;;;;;;5057161;28;20020;-83
2022/07/28 13:18:53;;;;;;;6.40;4.00;;;;;;;;;;5057813;28;20527;-83
2022/07/28 13:21:39;;;;;;;6.07;3.83;;;;;;;;;;5033301;28;20044;-81
2022/07/28 13:24:06;;;;;;;6.20;4.18;;;;;;;;;;5053092;28;20537;-84
2022/07/28 13:26:32;;;;;;;5.85;4.32;;;;;;;;;;5059517;28;20067;-84
2022/07/28 13:29:01;;;;;;;6.47;4.05;;;;;;;;;;5057358;28;20049;-84
2022/07/28 13:31:27;;;;;;;5.65;3.63;;;;;;;;;;5058029;28;20059;-84
2022/07/28 13:33:53;;;;;;;6.43;3.80;;;;;;;;;;5057528;28;20020;-85
2022/07/28 13:36:19;;;;;;;5.20;3.47;;;;;;;;;;5060257;28;20028;-84
2022/07/28 13:38:45;;;;;;;5.30;3.40;;;;;;;;;;5040510;28;20059;-83
2022/07/28 13:41:11;;;;;;;5.97;3.95;;;;;;;;;;5057284;28;20033;-82
2022/07/28 13:43:38;;;;;;;4.70;3.55;;;;;;;;;;5050856;28;20029;-82
2022/07/28 13:46:04;;;;;;;7.18;3.78;;;;;;;;;;5036094;28;20065;-84
2022/07/28 13:48:31;;;;;;;6.50;3.75;;;;;;;;;;5037803;28;20223;-83
2022/07/28 13:50:57;;;;;;;7.82;3.67;;;;;;;;;;5025320;28;20025;-83
2022/07/28 13:53:36;;;;;;;5.47;3.67;;;;;;;;;;5039659;28;20037;-84
2022/07/28 13:56:03;;;;;;;5.00;3.60;;;;;;;;;;5050932;28;20419;-84
2022/07/28 13:58:29;;;;;;;5.20;3.97;;;;;;;;;;5040417;28;20434;-83
2022/07/28 14:00:55;;;;;;;6.13;3.90;;;;;;;;;;5058013;28;20029;-84
2022/07/28 14:03:21;;;;;;;5.30;3.60;;;;;;;;;;5061038;28;20028;-84
2022/07/28 14:05:47;;;;;;;5.95;3.63;;;;;;;;;;5056123;28;20033;-82
2022/07/28 14:08:19;;;;;;;5.03;3.70;;;;;;;;;;5061303;28;20029;-84
2022/07/28 14:10:46;;;;;;;6.03;3.67;;;;;;;;;;5036161;28;20221;-83
2022/07/28 14:13:12;;;;;;;4.68;3.55;;;;;;;;;;5065782;28;20032;-84
2022/07/28 14:15:39;;;;;;;5.93;3.72;;;;;;;;;;5061880;28;20018;-83
2022/07/28 14:18:05;;;;;;;5.95;3.70;;;;;;;;;;5053631;28;20151;-84
2022/07/28 14:20:31;;;;;;;6.18;4.45;;;;;;;;;;5051998;28;20078;-83
2022/07/28 14:22:57;;;;;;;6.18;3.80;;;;;;;;;;5067107;28;20020;-85
2022/07/28 14:25:24;;;;;;;7.63;3.95;;;;;;;;;;5065926;28;20108;-84
2022/07/28 14:27:50;;;;;;;6.25;3.83;;;;;;;;;;5057012;28;20045;-84
2022/07/28 14:30:16;;;;;;;7.20;3.30;;;;;;;;;;5057547;28;20025;-83
2022/07/28 14:32:42;;;;;;;6.50;3.47;;;;;;;;;;5055854;28;20013;-82
2022/07/28 14:35:09;;;;;;;5.45;3.55;;;;;;;;;;5070187;28;20143;-83
2022/07/28 14:37:35;;;;;;;6.90;3.55;;;;;;;;;;5071759;28;20044;-84
2022/07/28 14:40:01;;;;;;;4.90;3.20;;;;;;;;;;5043357;28;20025;-84
2022/07/28 14:42:27;;;;;;;4.60;3.08;;;;;;;;;;5056812;28;20495;-83
2022/07/28 14:44:53;;;;;;;4.82;3.22;;;;;;;;;;5059182;28;20047;-83
2022/07/28 14:47:21;;;;;;;5.72;3.50;;;;;;;;;;5067117;28;20056;-83